Time;durP1;ratioP1;P1;durP2;ratioP2;P2;SDS_P1;SDS_P2;PMS_P1;PMS_P2;Temp;Humidity;BMP_temperature;BMP_pressure;BME280_temperature;BME280_humidity;BME280_pressure;Samples;Min_cycle;Max_cycle;Signal;HPM_P1;HPM_P2
2023/06/24 00:01:36;;;;;;;7.97;7.28;;;27.10;57.80;;;;;;5015616;28;20041;-73
2023/06/24 00:04:02;;;;;;;9.80;7.20;;;27.00;57.80;;;;;;5014276;28;20034;-73
2023/06/24 00:06:27;;;;;;;7.80;7.00;;;27.00;57.80;;;;;;5015621;28;20032;-73
2023/06/24 00:09:00;;;;;;;8.13;6.38;;;27.00;57.90;;;;;;5015923;28;20034;-73
2023/06/24 00:11:29;;;;;;;7.57;6.88;;;26.90;57.90;;;;;;5015650;28;20384;-73
2023/06/24 00:13:56;;;;;;;7.70;7.00;;;26.90;58.00;;;;;;5015313;28;20033;-73
2023/06/24 00:16:26;;;;;;;7.57;6.88;;;26.80;58.00;;;;;;5014197;28;20041;-73
2023/06/24 00:18:54;;;;;;;7.82;7.13;;;26.90;58.20;;;;;;5014277;28;20029;-72
2023/06/24 00:21:19;;;;;;;8.63;7.68;;;26.80;58.20;;;;;;5014148;28;20030;-73
2023/06/24 00:23:46;;;;;;;7.43;6.38;;;26.80;58.20;;;;;;5015326;28;20037;-73
2023/06/24 00:26:12;;;;;;;8.30;7.50;;;26.80;58.30;;;;;;5015238;28;20029;-73
2023/06/24 00:28:37;;;;;;;8.00;7.20;;;26.70;58.30;;;;;;5015107;28;20025;-71
2023/06/24 00:31:03;;;;;;;8.88;7.07;;;26.70;58.40;;;;;;5014870;28;20036;-73
2023/06/24 00:33:29;;;;;;;7.82;6.88;;;26.70;58.50;;;;;;5014785;28;20026;-72
2023/06/24 00:35:56;;;;;;;7.72;7.00;;;26.60;58.60;;;;;;5015231;28;20539;-73
2023/06/24 00:38:22;;;;;;;7.57;6.88;;;26.60;58.60;;;;;;5014965;28;20026;-73
2023/06/24 00:40:48;;;;;;;6.97;6.30;;;26.60;58.60;;;;;;5014153;28;20423;-73
2023/06/24 00:43:13;;;;;;;8.25;6.97;;;26.60;58.60;;;;;;5015027;28;20476;-73
2023/06/24 00:45:39;;;;;;;6.55;5.95;;;26.60;58.70;;;;;;5015329;28;20041;-73
2023/06/24 00:48:06;;;;;;;7.55;6.85;;;26.60;58.80;;;;;;5014895;28;20080;-73
2023/06/24 00:50:31;;;;;;;7.82;6.85;;;26.60;58.80;;;;;;5014969;28;20457;-73
2023/06/24 00:52:57;;;;;;;8.00;7.20;;;26.60;58.80;;;;;;5015151;28;20052;-74
2023/06/24 00:55:23;;;;;;;8.35;7.18;;;26.50;58.80;;;;;;5015166;28;20419;-73
2023/06/24 00:57:53;;;;;;;8.30;7.32;;;26.50;59.00;;;;;;5013583;28;20025;-72
2023/06/24 01:00:21;;;;;;;8.23;7.43;;;26.50;59.10;;;;;;5014673;28;20362;-72
2023/06/24 01:02:48;;;;;;;8.02;7.22;;;26.50;59.20;;;;;;5013496;28;20030;-73
2023/06/24 01:05:14;;;;;;;7.05;6.30;;;26.40;59.20;;;;;;5013405;28;20480;-72
2023/06/24 01:07:41;;;;;;;7.80;7.03;;;26.40;59.40;;;;;;5014661;28;20030;-72
2023/06/24 01:10:08;;;;;;;8.10;7.30;;;26.40;59.40;;;;;;5014545;28;20083;-72
2023/06/24 01:12:35;;;;;;;7.00;6.30;;;26.40;59.60;;;;;;5014686;28;20524;-73
2023/06/24 01:15:03;;;;;;;7.80;7.05;;;26.40;59.70;;;;;;5014614;28;20104;-73
2023/06/24 01:17:54;;;;;;;7.75;6.97;;;26.40;59.70;;;;;;5014513;28;20029;-73
2023/06/24 01:20:29;;;;;;;7.13;6.43;;;26.40;59.90;;;;;;5014302;28;20515;-73
2023/06/24 01:23:24;;;;;;;7.47;6.70;;;26.40;59.60;;;;;;5014562;28;20491;-73
2023/06/24 01:25:59;;;;;;;7.65;6.93;;;26.40;59.50;;;;;;5009275;28;20053;-72
2023/06/24 01:28:25;;;;;;;7.72;6.68;;;26.50;59.60;;;;;;5014671;28;20832;-72
2023/06/24 01:31:30;;;;;;;7.25;6.55;;;26.40;59.50;;;;;;5013955;28;20108;-72
2023/06/24 01:34:11;;;;;;;8.00;7.20;;;26.40;59.80;;;;;;5014435;28;20040;-73
2023/06/24 01:36:40;;;;;;;6.35;5.75;;;26.40;59.70;;;;;;5014376;28;20088;-72
2023/06/24 01:39:09;;;;;;;7.20;6.50;;;26.40;59.60;;;;;;5014000;28;20026;-73
2023/06/24 01:41:44;;;;;;;7.22;6.53;;;26.40;59.70;;;;;;5012605;28;20464;-73
2023/06/24 01:44:15;;;;;;;7.68;6.07;;;26.40;59.60;;;;;;5013333;28;20054;-72
2023/06/24 01:46:44;;;;;;;8.10;7.30;;;26.30;59.70;;;;;;5014074;28;20053;-72
2023/06/24 01:49:13;;;;;;;7.40;6.65;;;26.30;59.80;;;;;;5014191;28;20456;-72
2023/06/24 01:51:41;;;;;;;7.57;6.88;;;26.20;60.00;;;;;;5013377;28;20417;-73
2023/06/24 01:54:13;;;;;;;7.60;6.90;;;26.20;60.00;;;;;;5013931;28;20033;-72
2023/06/24 01:56:41;;;;;;;6.45;5.82;;;26.30;60.10;;;;;;5012626;28;20033;-72
2023/06/24 01:59:08;;;;;;;7.53;6.68;;;26.30;60.70;;;;;;5013831;28;20567;-72
2023/06/24 02:01:36;;;;;;;7.90;7.10;;;26.30;60.10;;;;;;5012189;28;20164;-72
2023/06/24 02:04:04;;;;;;;6.93;6.22;;;26.30;60.10;;;;;;5013332;28;20499;-72
2023/06/24 02:06:30;;;;;;;8.98;7.07;;;26.30;60.20;;;;;;5012499;28;20026;-72
2023/06/24 02:08:58;;;;;;;7.30;6.60;;;26.30;60.20;;;;;;5012355;28;20475;-73
2023/06/24 02:11:26;;;;;;;8.20;7.40;;;26.30;60.20;;;;;;5013124;28;20525;-72
2023/06/24 02:13:53;;;;;;;8.02;7.25;;;26.30;60.10;;;;;;5013717;28;20134;-72
2023/06/24 02:16:21;;;;;;;8.25;7.35;;;26.30;60.10;;;;;;5013436;28;20057;-72
2023/06/24 02:18:47;;;;;;;7.22;6.47;;;26.20;60.20;;;;;;5013642;28;20030;-74
2023/06/24 02:21:15;;;;;;;8.30;5.93;;;26.20;60.30;;;;;;5013096;28;20030;-73
2023/06/24 02:23:42;;;;;;;7.78;7.07;;;26.20;60.40;;;;;;5011888;28;20532;-73
2023/06/24 02:26:09;;;;;;;7.40;6.60;;;26.20;60.40;;;;;;5013605;28;20033;-73
2023/06/24 02:28:37;;;;;;;7.80;7.00;;;26.20;60.40;;;;;;5011879;28;20030;-72
2023/06/24 02:31:04;;;;;;;7.80;7.00;;;26.20;60.40;;;;;;5011777;28;20060;-73
2023/06/24 02:33:29;;;;;;;8.10;7.30;;;26.20;60.50;;;;;;5012866;28;20537;-73
2023/06/24 02:35:55;;;;;;;8.00;7.10;;;26.20;60.50;;;;;;5011915;28;20516;-72
2023/06/24 02:38:21;;;;;;;8.18;7.32;;;26.20;60.60;;;;;;5013192;28;20026;-72
2023/06/24 02:40:48;;;;;;;8.23;7.43;;;26.20;60.60;;;;;;5013133;28;20384;-72
2023/06/24 02:43:14;;;;;;;7.68;6.88;;;26.20;60.70;;;;;;5011319;28;20075;-72
2023/06/24 02:45:39;;;;;;;7.95;7.15;;;26.20;60.70;;;;;;5011859;28;20069;-73
2023/06/24 02:48:08;;;;;;;7.75;7.03;;;26.20;60.70;;;;;;5013188;28;20022;-73
2023/06/24 02:50:35;;;;;;;7.25;6.55;;;26.20;60.70;;;;;;5013005;28;20104;-73
2023/06/24 02:53:02;;;;;;;7.88;6.95;;;26.30;60.70;;;;;;5011388;28;20026;-74
2023/06/24 02:55:28;;;;;;;7.20;6.50;;;26.30;60.70;;;;;;5013141;28;20468;-73
2023/06/24 02:57:56;;;;;;;8.85;7.53;;;26.30;60.70;;;;;;5013099;28;20041;-73
2023/06/24 03:00:22;;;;;;;7.85;7.05;;;26.30;60.70;;;;;;5013154;28;20029;-73
2023/06/24 03:02:49;;;;;;;7.40;6.70;;;26.40;60.70;;;;;;5011530;28;20029;-72
2023/06/24 03:05:15;;;;;;;8.63;7.20;;;26.40;60.70;;;;;;5012153;28;20033;-73
2023/06/24 03:07:42;;;;;;;8.40;7.60;;;26.40;60.60;;;;;;5013357;28;20036;-73
2023/06/24 03:10:08;;;;;;;8.68;7.78;;;26.40;60.60;;;;;;5013074;28;20026;-73
2023/06/24 03:12:34;;;;;;;8.88;7.65;;;26.40;60.70;;;;;;5012606;28;20040;-73
2023/06/24 03:15:02;;;;;;;8.15;7.40;;;26.40;60.60;;;;;;5013067;28;20029;-73
2023/06/24 03:17:29;;;;;;;9.20;8.30;;;26.40;60.60;;;;;;5012448;28;20113;-73
2023/06/24 03:19:55;;;;;;;8.80;7.90;;;26.40;60.70;;;;;;5011441;28;20026;-74
2023/06/24 03:22:22;;;;;;;7.35;6.57;;;26.40;60.70;;;;;;5011788;28;20577;-73
2023/06/24 03:24:48;;;;;;;8.68;7.72;;;26.50;60.70;;;;;;5012649;28;20550;-73
2023/06/24 03:27:14;;;;;;;8.43;7.53;;;26.50;60.70;;;;;;5011451;28;20030;-73
2023/06/24 03:29:40;;;;;;;9.85;7.22;;;26.50;60.70;;;;;;5012271;28;20464;-72
2023/06/24 03:32:06;;;;;;;8.82;7.95;;;26.60;60.70;;;;;;5011507;28;20030;-73
2023/06/24 03:34:31;;;;;;;8.43;7.60;;;26.50;60.50;;;;;;5011074;28;20117;-73
2023/06/24 03:36:57;;;;;;;9.43;8.30;;;26.60;60.70;;;;;;5012853;28;20538;-73
2023/06/24 03:39:23;;;;;;;9.77;8.07;;;26.60;60.70;;;;;;5012494;28;20492;-72
2023/06/24 03:41:48;;;;;;;8.60;7.75;;;26.60;60.70;;;;;;5012226;28;20022;-72
2023/06/24 03:44:14;;;;;;;8.13;7.32;;;26.60;60.70;;;;;;5012089;28;20050;-73
2023/06/24 03:46:40;;;;;;;8.90;8.00;;;26.60;61.20;;;;;;5012682;28;20072;-73
2023/06/24 03:49:06;;;;;;;8.93;8.02;;;26.70;60.60;;;;;;5011292;28;20034;-72
2023/06/24 03:51:32;;;;;;;8.80;7.90;;;26.70;60.60;;;;;;5012221;28;20105;-73
2023/06/24 03:53:57;;;;;;;8.82;7.93;;;26.80;60.50;;;;;;5012014;28;20157;-74
2023/06/24 03:56:23;;;;;;;10.50;8.10;;;26.80;60.50;;;;;;5012586;28;20491;-72
2023/06/24 03:58:49;;;;;;;8.60;7.80;;;26.80;60.50;;;;;;5012541;28;20460;-72
2023/06/24 04:01:17;;;;;;;8.75;7.85;;;26.80;60.50;;;;;;5011809;28;20037;-72
2023/06/24 04:03:43;;;;;;;8.45;7.65;;;26.90;60.50;;;;;;5011749;28;20026;-72
2023/06/24 04:06:08;;;;;;;7.97;7.18;;;26.80;60.40;;;;;;5011832;28;20519;-73
2023/06/24 04:08:34;;;;;;;8.85;7.93;;;26.90;60.50;;;;;;5014400;28;20487;-74
2023/06/24 04:11:00;;;;;;;8.30;7.50;;;26.90;60.60;;;;;;5015733;28;20080;-73
2023/06/24 04:13:26;;;;;;;9.25;7.70;;;26.90;60.60;;;;;;5015524;28;20482;-73
2023/06/24 04:15:52;;;;;;;10.05;7.68;;;26.90;60.60;;;;;;5014123;28;20117;-73
2023/06/24 04:18:18;;;;;;;8.63;7.82;;;27.00;60.60;;;;;;5015383;28;20515;-73
2023/06/24 04:20:44;;;;;;;10.38;8.57;;;27.00;60.60;;;;;;5014777;28;20029;-74
2023/06/24 04:23:10;;;;;;;9.35;8.45;;;27.00;60.60;;;;;;5015613;28;20380;-72
2023/06/24 04:25:36;;;;;;;9.65;8.73;;;27.10;60.60;;;;;;5015331;28;20055;-73
2023/06/24 04:28:04;;;;;;;9.38;8.45;;;27.10;60.70;;;;;;5015849;28;20076;-74
2023/06/24 04:30:30;;;;;;;8.82;7.93;;;27.20;60.80;;;;;;5014912;28;20061;-73
2023/06/24 04:32:56;;;;;;;10.60;8.63;;;27.20;60.70;;;;;;5014415;28;20109;-74
2023/06/24 04:35:22;;;;;;;10.50;8.48;;;27.20;60.70;;;;;;5014847;28;20145;-72
2023/06/24 04:37:49;;;;;;;9.10;8.20;;;27.20;60.70;;;;;;5014128;28;20033;-73
2023/06/24 04:40:16;;;;;;;9.57;8.68;;;27.20;60.80;;;;;;5014053;28;20022;-73
2023/06/24 04:42:42;;;;;;;9.48;8.57;;;27.30;60.90;;;;;;5012797;28;20472;-75
2023/06/24 04:45:08;;;;;;;8.98;8.10;;;27.30;60.80;;;;;;5014973;28;20046;-75
2023/06/24 04:47:34;;;;;;;9.30;8.40;;;27.30;60.80;;;;;;5014811;28;20084;-74
2023/06/24 04:49:59;;;;;;;9.60;8.70;;;27.40;60.90;;;;;;5015233;28;20473;-75
2023/06/24 04:52:25;;;;;;;8.85;8.02;;;27.40;60.80;;;;;;5015448;28;20049;-75
2023/06/24 04:54:50;;;;;;;10.18;9.18;;;27.50;61.00;;;;;;5013551;28;20053;-75
2023/06/24 04:57:36;;;;;;;9.50;8.60;;;27.50;61.00;;;;;;5013269;28;20026;-74
2023/06/24 05:00:02;;;;;;;10.68;8.90;;;27.60;61.40;;;;;;5014833;28;20089;-75
2023/06/24 05:02:28;;;;;;;9.65;8.75;;;27.60;61.10;;;;;;5015101;28;20026;-74
2023/06/24 05:04:54;;;;;;;9.73;8.82;;;27.60;61.10;;;;;;5014770;28;20053;-74
2023/06/24 05:07:20;;;;;;;9.50;8.60;;;27.70;61.10;;;;;;5014047;28;20030;-75
2023/06/24 05:09:49;;;;;;;9.27;8.27;;;27.80;61.10;;;;;;5014983;28;20084;-74
2023/06/24 05:12:15;;;;;;;10.25;9.25;;;27.80;61.00;;;;;;5013235;28;20061;-74
2023/06/24 05:14:40;;;;;;;10.00;9.00;;;27.90;61.00;;;;;;5015168;28;20062;-73
2023/06/24 05:17:06;;;;;;;8.80;8.00;;;28.00;60.90;;;;;;5014782;28;20030;-74
2023/06/24 05:19:32;;;;;;;9.82;8.82;;;28.00;60.80;;;;;;5014371;28;20018;-75
2023/06/24 05:21:58;;;;;;;10.15;9.15;;;28.00;61.40;;;;;;5014388;28;20030;-74
2023/06/24 05:24:23;;;;;;;10.50;9.50;;;28.00;61.40;;;;;;5014701;28;20037;-74
2023/06/24 05:26:50;;;;;;;9.82;8.93;;;28.00;60.90;;;;;;5013888;28;20030;-77
2023/06/24 05:29:17;;;;;;;9.65;8.75;;;28.00;61.00;;;;;;5014497;28;20033;-79
2023/06/24 05:31:43;;;;;;;9.30;8.48;;;28.00;61.10;;;;;;5013848;28;20068;-80
2023/06/24 05:34:09;;;;;;;9.68;8.73;;;28.00;61.10;;;;;;5014616;28;20030;-80
2023/06/24 05:36:35;;;;;;;9.93;8.93;;;28.00;61.10;;;;;;5013122;28;20025;-75
2023/06/24 05:39:00;;;;;;;10.38;9.20;;;28.10;61.20;;;;;;5013873;28;20030;-74
2023/06/24 05:41:26;;;;;;;9.80;8.82;;;28.10;61.20;;;;;;5013759;28;20214;-74
2023/06/24 05:44:02;;;;;;;10.02;9.02;;;28.10;61.10;;;;;;5013723;28;20180;-76
2023/06/24 05:46:28;;;;;;;9.70;8.70;;;28.10;61.30;;;;;;5013918;28;20522;-77
2023/06/24 05:48:54;;;;;;;9.93;8.93;;;28.10;61.10;;;;;;5014236;28;20026;-76
2023/06/24 05:51:19;;;;;;;10.40;9.40;;;28.10;61.20;;;;;;5013785;28;20030;-73
2023/06/24 05:53:45;;;;;;;8.68;7.13;;;28.10;61.20;;;;;;5013609;28;20034;-75
2023/06/24 05:56:11;;;;;;;10.02;9.02;;;28.20;61.40;;;;;;5013694;28;20022;-75
2023/06/24 05:58:37;;;;;;;9.77;8.77;;;28.20;61.40;;;;;;5013538;28;20033;-76
2023/06/24 06:01:02;;;;;;;10.30;9.30;;;28.20;61.40;;;;;;5013931;28;20025;-73
2023/06/24 06:03:28;;;;;;;10.15;9.00;;;28.20;61.40;;;;;;5013352;28;20472;-73
2023/06/24 06:05:54;;;;;;;9.50;8.63;;;28.20;61.50;;;;;;5013540;28;20045;-74
2023/06/24 06:08:19;;;;;;;10.60;8.75;;;28.10;61.60;;;;;;5012968;28;20030;-75
2023/06/24 06:10:45;;;;;;;10.20;9.18;;;28.10;61.70;;;;;;5013537;28;20026;-78
2023/06/24 06:13:11;;;;;;;12.30;8.73;;;28.10;61.80;;;;;;5013469;28;20476;-77
2023/06/24 06:15:36;;;;;;;9.35;8.45;;;28.10;62.00;;;;;;5013203;28;20061;-74
2023/06/24 06:18:02;;;;;;;10.70;9.70;;;28.00;62.00;;;;;;5013574;28;20037;-73
2023/06/24 06:20:27;;;;;;;9.18;8.27;;;27.90;62.00;;;;;;5012903;28;20025;-77
2023/06/24 06:22:53;;;;;;;10.90;9.80;;;28.00;62.20;;;;;;5012170;28;20337;-74
2023/06/24 06:25:19;;;;;;;10.27;9.27;;;28.00;62.20;;;;;;5012748;28;20030;-76
2023/06/24 06:27:44;;;;;;;9.82;8.82;;;28.00;62.20;;;;;;5013173;28;20069;-74
2023/06/24 06:30:10;;;;;;;9.63;8.73;;;27.90;62.10;;;;;;5012472;28;20097;-75
2023/06/24 06:32:36;;;;;;;9.05;8.20;;;28.00;62.20;;;;;;5013271;28;20034;-78
2023/06/24 06:35:02;;;;;;;9.70;8.80;;;28.00;62.20;;;;;;5013481;28;20038;-78
2023/06/24 06:37:28;;;;;;;9.68;8.77;;;28.00;62.10;;;;;;5013070;28;20068;-74
2023/06/24 06:39:53;;;;;;;10.57;8.07;;;28.10;62.10;;;;;;5012785;28;20025;-75
2023/06/24 06:42:19;;;;;;;8.85;8.05;;;28.10;62.00;;;;;;5011722;28;20037;-79
2023/06/24 06:44:45;;;;;;;8.93;8.13;;;28.10;62.00;;;;;;5028219;28;20045;-76
2023/06/24 06:47:11;;;;;;;9.65;8.75;;;28.10;62.00;;;;;;5013027;28;20036;-76
2023/06/24 06:49:36;;;;;;;8.60;7.80;;;28.10;61.90;;;;;;5011335;28;20041;-79
2023/06/24 06:52:02;;;;;;;8.65;7.85;;;28.20;61.90;;;;;;5006988;28;20038;-84
2023/06/24 06:54:28;;;;;;;8.45;7.30;;;28.20;61.90;;;;;;5010999;28;20045;-79
2023/06/24 06:56:55;;;;;;;8.95;8.05;;;28.20;61.80;;;;;;5012656;28;20054;-74
2023/06/24 06:59:21;;;;;;;10.13;7.50;;;28.20;61.80;;;;;;5012097;28;20029;-74
2023/06/24 07:01:46;;;;;;;12.75;7.53;;;28.20;61.80;;;;;;5011321;28;20026;-73
2023/06/24 07:04:12;;;;;;;14.85;8.38;;;28.20;61.80;;;;;;5012698;28;20081;-74
2023/06/24 07:06:38;;;;;;;8.65;7.75;;;28.30;61.80;;;;;;5013912;28;20375;-74
2023/06/24 07:09:03;;;;;;;8.80;7.90;;;28.30;61.70;;;;;;5013435;28;20101;-74
2023/06/24 07:11:29;;;;;;;7.82;7.03;;;28.30;61.50;;;;;;5013986;28;20033;-73
2023/06/24 07:13:54;;;;;;;10.20;7.00;;;28.40;61.40;;;;;;5012396;28;20475;-74
2023/06/24 07:16:20;;;;;;;9.00;6.53;;;28.40;61.20;;;;;;5013709;28;20109;-73
2023/06/24 07:18:46;;;;;;;6.93;6.22;;;28.40;61.00;;;;;;5014149;28;20026;-75
2023/06/24 07:21:11;;;;;;;6.70;6.10;;;28.40;60.90;;;;;;5013794;28;20114;-75
2023/06/24 07:23:37;;;;;;;7.18;5.63;;;28.40;60.70;;;;;;5013578;28;20033;-74
2023/06/24 07:26:02;;;;;;;6.68;6.00;;;28.40;60.60;;;;;;5013696;28;20030;-74
2023/06/24 07:28:28;;;;;;;5.70;5.15;;;28.40;60.40;;;;;;5013699;28;20453;-75
2023/06/24 07:30:54;;;;;;;5.88;5.30;;;28.40;60.20;;;;;;5013398;28;20026;-75
2023/06/24 07:33:19;;;;;;;5.93;5.20;;;28.30;60.10;;;;;;5013481;28;20456;-75
2023/06/24 07:35:45;;;;;;;5.25;4.75;;;28.30;59.90;;;;;;5013368;28;20026;-75
2023/06/24 07:38:10;;;;;;;4.78;4.28;;;28.30;59.80;;;;;;5013121;28;20029;-74
2023/06/24 07:40:36;;;;;;;5.40;4.90;;;28.30;59.60;;;;;;5013324;28;20379;-75
2023/06/24 07:43:02;;;;;;;5.70;4.45;;;28.40;59.40;;;;;;5013870;28;20053;-75
2023/06/24 07:45:27;;;;;;;5.10;4.50;;;28.40;59.30;;;;;;5017011;28;20042;-74
2023/06/24 07:47:53;;;;;;;5.32;4.80;;;28.50;59.20;;;;;;5016959;28;20021;-75
2023/06/24 07:50:19;;;;;;;5.10;4.53;;;28.50;59.00;;;;;;5016943;28;20025;-75
2023/06/24 07:52:44;;;;;;;4.70;4.22;;;28.50;58.80;;;;;;5017345;28;20033;-74
2023/06/24 07:55:11;;;;;;;4.38;3.97;;;28.60;58.90;;;;;;5017084;28;20104;-75
2023/06/24 07:57:36;;;;;;;4.55;3.90;;;28.60;58.50;;;;;;5017367;28;20038;-74
2023/06/24 08:00:03;;;;;;;5.03;4.10;;;28.60;58.40;;;;;;5016814;28;20045;-74
2023/06/24 08:02:29;;;;;;;4.65;4.13;;;28.70;58.30;;;;;;5016767;28;20083;-74
2023/06/24 08:04:54;;;;;;;4.60;4.00;;;28.70;58.20;;;;;;5016534;28;20037;-74
2023/06/24 08:07:20;;;;;;;5.00;3.53;;;28.80;58.00;;;;;;5016675;28;20026;-74
2023/06/24 08:09:46;;;;;;;4.32;3.70;;;28.90;57.70;;;;;;5016656;28;20460;-74
2023/06/24 08:12:11;;;;;;;4.45;4.00;;;28.90;57.40;;;;;;5015349;28;20048;-74
2023/06/24 08:14:37;;;;;;;4.57;3.70;;;29.00;57.30;;;;;;5016602;28;20088;-74
2023/06/24 08:17:03;;;;;;;4.20;3.70;;;29.10;57.10;;;;;;5016655;28;20022;-74
2023/06/24 08:19:29;;;;;;;4.10;3.70;;;29.10;57.10;;;;;;5016373;28;20026;-73
2023/06/24 08:21:54;;;;;;;4.30;3.90;;;29.10;56.90;;;;;;5016354;28;20092;-73
2023/06/24 08:24:20;;;;;;;3.90;3.55;;;29.10;56.30;;;;;;5016516;28;20072;-74
2023/06/24 08:26:46;;;;;;;3.85;3.40;;;29.00;56.40;;;;;;5016177;28;20030;-74
2023/06/24 08:29:11;;;;;;;4.93;3.72;;;28.90;56.40;;;;;;5016281;28;20030;-74
2023/06/24 08:31:37;;;;;;;4.25;3.30;;;28.90;56.40;;;;;;5016104;28;20037;-74
2023/06/24 08:34:02;;;;;;;4.60;3.53;;;28.90;56.40;;;;;;5016107;28;20030;-75
2023/06/24 08:36:31;;;;;;;3.90;3.50;;;28.80;56.20;;;;;;5016070;28;20037;-74
2023/06/24 08:38:57;;;;;;;3.92;3.53;;;28.80;56.10;;;;;;5016251;28;20065;-75
2023/06/24 08:41:26;;;;;;;4.13;3.60;;;28.80;56.20;;;;;;5016078;28;20049;-75
2023/06/24 08:43:53;;;;;;;5.65;4.28;;;28.80;56.10;;;;;;5014280;28;20049;-74
2023/06/24 08:46:19;;;;;;;4.68;4.03;;;28.80;56.50;;;;;;5015756;28;20057;-73
2023/06/24 08:48:47;;;;;;;6.43;4.60;;;28.80;56.90;;;;;;5015972;28;20456;-74
2023/06/24 08:51:18;;;;;;;5.05;4.25;;;28.80;56.80;;;;;;5015555;28;20029;-75
2023/06/24 08:53:44;;;;;;;4.30;3.90;;;28.90;56.80;;;;;;5014556;28;20068;-74
2023/06/24 08:56:10;;;;;;;5.00;4.00;;;28.90;56.70;;;;;;5015994;28;20022;-75
2023/06/24 08:58:36;;;;;;;4.70;4.20;;;28.90;56.70;;;;;;5015611;28;20030;-75
2023/06/24 09:01:03;;;;;;;4.80;4.30;;;28.80;56.70;;;;;;5014598;28;20029;-74
2023/06/24 09:03:28;;;;;;;5.00;4.35;;;28.80;56.80;;;;;;5013958;28;20494;-74
2023/06/24 09:05:54;;;;;;;4.50;3.95;;;28.70;56.80;;;;;;5014857;28;20061;-74
2023/06/24 09:08:21;;;;;;;5.25;4.25;;;28.70;56.80;;;;;;5016081;28;20026;-74
2023/06/24 09:10:54;;;;;;;5.18;3.97;;;28.70;56.60;;;;;;5015705;28;20425;-74
2023/06/24 09:13:20;;;;;;;4.45;3.75;;;28.70;56.60;;;;;;5015540;28;20033;-74
2023/06/24 09:15:46;;;;;;;5.22;3.90;;;28.70;56.60;;;;;;5015376;28;20026;-74
2023/06/24 09:18:11;;;;;;;4.57;3.65;;;28.70;56.60;;;;;;5015377;28;20449;-74
2023/06/24 09:20:44;;;;;;;4.10;3.67;;;28.70;56.50;;;;;;5014458;28;20129;-74
2023/06/24 09:23:10;;;;;;;4.05;3.60;;;28.80;56.40;;;;;;5014725;28;20033;-74
2023/06/24 09:25:36;;;;;;;4.03;3.38;;;28.80;56.30;;;;;;5015291;28;20038;-74
2023/06/24 09:28:03;;;;;;;6.22;3.60;;;28.80;56.10;;;;;;5015060;28;20037;-74
2023/06/24 09:30:29;;;;;;;6.32;3.63;;;28.90;55.90;;;;;;5013702;28;20026;-74
2023/06/24 09:32:55;;;;;;;3.75;3.17;;;28.90;55.80;;;;;;5015151;28;20026;-74
2023/06/24 09:35:23;;;;;;;4.18;3.30;;;29.00;55.70;;;;;;5013839;28;20555;-73
2023/06/24 09:37:56;;;;;;;4.97;3.55;;;29.10;55.50;;;;;;5015170;28;20032;-73
2023/06/24 09:40:23;;;;;;;4.25;3.22;;;29.10;55.00;;;;;;5015281;28;20029;-73
2023/06/24 09:43:00;;;;;;;3.42;2.92;;;29.10;55.10;;;;;;5013646;28;20049;-74
2023/06/24 09:45:29;;;;;;;6.53;3.60;;;29.20;54.80;;;;;;5014923;28;20403;-74
2023/06/24 09:47:57;;;;;;;4.82;3.33;;;29.30;54.80;;;;;;5014768;28;20030;-74
2023/06/24 09:50:23;;;;;;;4.38;3.50;;;29.40;54.70;;;;;;5014890;28;20033;-74
2023/06/24 09:52:50;;;;;;;3.53;3.03;;;29.40;54.50;;;;;;5014369;28;20037;-74
2023/06/24 09:55:17;;;;;;;4.88;3.13;;;29.40;54.40;;;;;;5012551;28;20373;-75
2023/06/24 09:57:45;;;;;;;4.18;3.35;;;29.50;54.50;;;;;;5013195;28;20160;-74
2023/06/24 10:00:15;;;;;;;3.83;3.00;;;29.50;54.40;;;;;;5013331;28;20030;-74
2023/06/24 10:02:41;;;;;;;3.30;2.92;;;29.60;54.30;;;;;;5013102;28;20037;-74
2023/06/24 10:05:07;;;;;;;4.70;3.50;;;29.70;54.10;;;;;;5013649;28;20044;-74
2023/06/24 10:07:34;;;;;;;3.40;2.85;;;29.80;54.00;;;;;;5014378;28;20486;-74
2023/06/24 10:10:03;;;;;;;4.43;3.08;;;29.80;53.90;;;;;;5014415;28;20040;-73
2023/06/24 10:12:28;;;;;;;3.80;2.95;;;29.80;53.70;;;;;;5014380;28;20451;-74
2023/06/24 10:14:54;;;;;;;3.80;2.80;;;29.90;53.60;;;;;;5014529;28;20029;-75
2023/06/24 10:17:20;;;;;;;4.38;3.28;;;30.00;54.00;;;;;;5013418;28;20058;-74
2023/06/24 10:19:46;;;;;;;3.50;2.70;;;30.20;53.10;;;;;;5013167;28;20443;-74
2023/06/24 10:22:11;;;;;;;3.28;2.90;;;30.30;53.10;;;;;;5014606;28;20022;-75
2023/06/24 10:24:41;;;;;;;3.63;2.72;;;30.20;52.60;;;;;;5014094;28;20073;-73
2023/06/24 10:27:13;;;;;;;5.35;3.10;;;30.10;52.00;;;;;;5014343;28;20026;-73
2023/06/24 10:29:39;;;;;;;4.53;3.60;;;30.00;52.20;;;;;;5014170;28;20036;-73
2023/06/24 10:32:05;;;;;;;5.07;3.17;;;30.10;52.80;;;;;;5014199;28;20025;-73
2023/06/24 10:34:53;;;;;;;4.35;3.60;;;30.10;52.80;;;;;;5014236;28;20034;-73
2023/06/24 10:37:21;;;;;;;3.65;3.28;;;30.30;53.20;;;;;;5013924;28;20480;-73
2023/06/24 10:39:54;;;;;;;5.53;3.88;;;30.40;53.10;;;;;;5013905;28;20349;-75
2023/06/24 10:42:37;;;;;;;4.82;3.80;;;30.50;53.30;;;;;;5012501;28;20030;-75
2023/06/24 10:45:09;;;;;;;4.32;3.70;;;30.60;53.70;;;;;;5014117;28;20473;-75
2023/06/24 10:47:35;;;;;;;4.40;4.00;;;30.70;53.80;;;;;;5013550;28;20534;-74
2023/06/24 10:50:01;;;;;;;5.60;3.80;;;30.80;53.90;;;;;;5029646;28;20076;-75
2023/06/24 10:52:27;;;;;;;7.25;4.00;;;30.80;53.90;;;;;;5013752;28;20496;-75
2023/06/24 10:54:53;;;;;;;6.03;3.70;;;30.90;54.00;;;;;;5012587;28;20120;-74
2023/06/24 10:57:24;;;;;;;4.43;3.55;;;30.90;53.90;;;;;;5013827;28;20452;-75
2023/06/24 10:59:51;;;;;;;4.85;3.30;;;30.90;54.00;;;;;;5013902;28;20045;-75
2023/06/24 11:02:18;;;;;;;4.85;3.03;;;31.00;54.10;;;;;;5013594;28;20400;-75
2023/06/24 11:04:47;;;;;;;3.25;2.90;;;31.00;54.10;;;;;;5012469;28;20042;-75
2023/06/24 11:07:14;;;;;;;4.38;2.97;;;31.10;54.10;;;;;;5013758;28;20026;-75
2023/06/24 11:09:47;;;;;;;6.85;3.00;;;31.10;53.90;;;;;;5013995;28;20026;-75
2023/06/24 11:12:13;;;;;;;4.13;3.10;;;31.20;54.00;;;;;;5013883;28;20025;-75
2023/06/24 11:14:40;;;;;;;4.53;2.70;;;31.30;54.00;;;;;;5013495;28;20587;-75
2023/06/24 11:17:06;;;;;;;3.38;2.72;;;31.30;53.90;;;;;;5014512;28;20132;-75
2023/06/24 11:19:32;;;;;;;5.03;3.10;;;31.30;53.90;;;;;;5016756;28;20034;-75
2023/06/24 11:22:01;;;;;;;4.00;2.85;;;31.40;54.00;;;;;;5017651;28;20025;-75
2023/06/24 11:24:28;;;;;;;4.13;2.78;;;31.40;53.90;;;;;;5017566;28;20033;-75
2023/06/24 11:26:54;;;;;;;4.90;2.78;;;31.40;53.80;;;;;;5016322;28;20029;-76
2023/06/24 11:29:20;;;;;;;4.38;2.85;;;31.40;53.90;;;;;;5016013;28;20457;-75
2023/06/24 11:31:46;;;;;;;3.05;2.70;;;31.30;53.90;;;;;;5017711;28;20028;-74
2023/06/24 11:34:11;;;;;;;4.60;2.80;;;31.30;53.80;;;;;;5016266;28;20032;-76
2023/06/24 11:36:37;;;;;;;4.35;2.70;;;31.30;53.90;;;;;;5017649;28;20515;-74
2023/06/24 11:39:03;;;;;;;4.07;2.90;;;31.40;54.00;;;;;;5017197;28;20080;-74
2023/06/24 11:41:29;;;;;;;5.38;2.80;;;31.40;54.20;;;;;;5017590;28;20030;-76
2023/06/24 11:43:58;;;;;;;5.88;3.20;;;31.50;54.30;;;;;;5017579;28;20050;-75
2023/06/24 11:46:28;;;;;;;3.97;2.42;;;31.50;54.30;;;;;;5017238;28;20069;-75
2023/06/24 11:49:07;;;;;;;4.53;2.80;;;31.60;54.20;;;;;;5017069;28;20156;-75
2023/06/24 11:51:36;;;;;;;3.85;2.72;;;31.70;54.10;;;;;;5016121;28;20472;-75
2023/06/24 11:54:03;;;;;;;3.58;2.30;;;31.80;54.00;;;;;;5017033;28;20030;-75
2023/06/24 11:56:36;;;;;;;3.65;2.63;;;31.90;53.80;;;;;;5016964;28;20104;-75
2023/06/24 11:59:18;;;;;;;2.90;2.53;;;32.00;53.70;;;;;;5015694;28;20080;-75
2023/06/24 12:01:44;;;;;;;3.85;2.67;;;32.00;53.60;;;;;;5016091;28;20034;-75
2023/06/24 12:04:13;;;;;;;5.63;2.40;;;32.00;53.70;;;;;;5015431;28;20037;-75
2023/06/24 12:06:41;;;;;;;3.70;2.67;;;32.00;53.60;;;;;;5015557;28;20415;-75
2023/06/24 12:09:08;;;;;;;2.85;2.25;;;31.90;53.40;;;;;;5015212;28;20079;-75
2023/06/24 12:11:33;;;;;;;4.72;2.55;;;31.90;53.40;;;;;;5015393;28;20022;-75
2023/06/24 12:13:59;;;;;;;3.20;2.50;;;31.90;53.40;;;;;;5016662;28;20041;-75
2023/06/24 12:16:26;;;;;;;3.85;2.30;;;31.90;53.40;;;;;;5016744;28;20029;-75
2023/06/24 12:18:52;;;;;;;3.13;2.30;;;31.90;53.40;;;;;;5016629;28;20072;-75
2023/06/24 12:21:17;;;;;;;3.28;2.20;;;31.90;53.50;;;;;;5015372;28;20486;-75
2023/06/24 12:23:44;;;;;;;3.67;2.35;;;31.90;53.50;;;;;;5016237;28;20026;-75
2023/06/24 12:26:10;;;;;;;4.15;2.40;;;31.90;53.50;;;;;;5031785;28;20379;-74
2023/06/24 12:28:35;;;;;;;4.95;2.30;;;31.80;53.50;;;;;;5014279;28;20026;-74
2023/06/24 12:31:01;;;;;;;4.35;2.70;;;31.80;53.50;;;;;;5016444;28;20065;-74
2023/06/24 12:33:26;;;;;;;3.95;2.40;;;31.70;53.50;;;;;;5016298;28;20416;-75
2023/06/24 12:35:52;;;;;;;3.60;2.67;;;31.70;53.60;;;;;;5016355;28;20034;-75
2023/06/24 12:38:18;;;;;;;3.45;2.50;;;31.70;53.60;;;;;;5015464;28;20030;-75
2023/06/24 12:40:44;;;;;;;5.30;2.33;;;31.70;53.60;;;;;;5016172;28;20030;-75
2023/06/24 12:43:10;;;;;;;3.30;2.30;;;31.70;53.60;;;;;;5016087;28;20065;-74
2023/06/24 12:45:37;;;;;;;4.18;2.22;;;31.70;53.50;;;;;;5015800;28;20088;-75